logo
Search for airport 
image banner adimage banner adimage banner ad
image banner ad

OLZ190 - Wujah Al Hajar Airbase

Located in Batroun, Lebanon

ICAO - , IATA -

Data provided by Airmate  

General information

Coordinates: N34°16'52" E35°40'48"
Elevation is 630 feet MSL.
Magnetic variation is 5° East
View others Airports in North Governorate

Operational data

Special qualification required
Current time UTC:
Current local time:
METAR: OLBA 131900Z 28003KT 8000 BKN023 20/16 Q1016 NOSIG
TAF: TAF OLBA 131600Z 1318/1424 VRB02KT 8000 SCT026 PROB40 TEMPO 1400/1424 5000 BR BECMG 1406/1409 24010KT BECMG 1418/1420 16004KT BKN026
View NOTAMs / SUP AIP / TFR affecting this airport [VIEW]
Communications frequencies: [VIEW]

Runways:

RWY identifierQFULength (ft)Width (ft)SurfaceLDA (ft)
0227°505097CONC
20207°505097CONC

Airport contact information

Address: Batroun Lebanon

Satellite view of OLZ190